createdAt,value
2024-02-02T00:00:51.620Z,100537.88
2024-02-02T00:05:43.448Z,100535.00
2024-02-02T00:10:35.201Z,100526.56
2024-02-02T00:15:26.995Z,100520.84
2024-02-02T00:20:18.778Z,100524.19
2024-02-02T00:25:10.481Z,100515.06
2024-02-02T00:30:02.310Z,100508.63
2024-02-02T00:34:54.468Z,100518.91
2024-02-02T00:39:46.247Z,100518.03
2024-02-02T00:44:37.908Z,100503.50
2024-02-02T00:49:29.898Z,100500.75
2024-02-02T00:54:21.693Z,100476.94
2024-02-02T00:59:13.466Z,100464.28
2024-02-02T01:04:05.157Z,100463.91
2024-02-02T01:08:56.903Z,100443.84
2024-02-02T01:13:48.703Z,100438.25
2024-02-02T01:18:40.979Z,100443.13
2024-02-02T01:23:33.091Z,100432.34
2024-02-02T01:28:25.101Z,100417.78
2024-02-02T01:33:16.966Z,100405.16
2024-02-02T01:38:08.707Z,100402.09
2024-02-02T01:43:00.525Z,100400.88
2024-02-02T01:47:52.292Z,100390.94
2024-02-02T01:52:44.051Z,100381.81
2024-02-02T01:57:35.835Z,100370.19
2024-02-02T02:02:27.539Z,100375.94
2024-02-02T02:07:19.423Z,100369.53
2024-02-02T02:12:11.151Z,100368.22
2024-02-02T02:17:03.041Z,100379.47
2024-02-02T02:21:54.724Z,100377.63
2024-02-02T02:26:47.665Z,100375.75
2024-02-02T02:31:40.674Z,100361.44
2024-02-02T02:36:32.430Z,100367.03
2024-02-02T02:41:24.215Z,100368.50
2024-02-02T02:46:15.897Z,100371.00
2024-02-02T02:51:07.606Z,100365.44
2024-02-02T02:55:59.295Z,100364.44
2024-02-02T03:00:54.210Z,100349.56
2024-02-02T03:05:45.968Z,100354.41
2024-02-02T03:10:37.599Z,100339.03
2024-02-02T03:15:33.061Z,100341.19
2024-02-02T03:20:27.897Z,100338.97
2024-02-02T03:25:19.547Z,100334.06
2024-02-02T03:30:11.771Z,100329.09
2024-02-02T03:35:03.653Z,100318.50
2024-02-02T03:39:55.354Z,100311.03
2024-02-02T03:44:46.975Z,100322.31
2024-02-02T03:49:39.148Z,100339.00
2024-02-02T03:54:31.011Z,100329.69
2024-02-02T03:59:23.053Z,100317.47
2024-02-02T04:04:15.184Z,100302.13
2024-02-02T04:09:06.954Z,100306.78
2024-02-02T04:13:58.576Z,100292.72
2024-02-02T04:18:50.689Z,100299.59
2024-02-02T04:23:42.476Z,100291.50
2024-02-02T04:28:34.209Z,100290.47
2024-02-02T04:33:26.087Z,100291.31
2024-02-02T04:38:18.922Z,100276.97
2024-02-02T04:43:10.607Z,100281.16
2024-02-02T04:48:02.373Z,100277.44
2024-02-02T04:52:54.102Z,100273.06
2024-02-02T04:57:45.755Z,100270.19
2024-02-02T05:02:37.689Z,100256.28
2024-02-02T05:07:29.576Z,100260.66
2024-02-02T05:12:21.311Z,100254.88
2024-02-02T05:17:13.071Z,100259.91
2024-02-02T05:22:04.943Z,100238.56
2024-02-02T05:26:56.656Z,100260.44
2024-02-02T05:31:48.340Z,100239.94
2024-02-02T05:36:40.486Z,100244.78
2024-02-02T05:41:32.111Z,100249.44
2024-02-02T05:46:23.714Z,100257.81
2024-02-02T05:51:15.316Z,100275.53
2024-02-02T05:56:07.208Z,100277.69
2024-02-02T06:00:58.954Z,100271.69
2024-02-02T06:05:50.661Z,100272.91
2024-02-02T06:10:42.537Z,100276.81
2024-02-02T06:15:34.209Z,100256.13
2024-02-02T06:20:25.889Z,100255.84
2024-02-02T06:25:18.974Z,100244.31
2024-02-02T06:30:12.607Z,100230.97
2024-02-02T06:35:04.789Z,100241.53
2024-02-02T06:39:57.311Z,100214.25
2024-02-02T06:44:51.847Z,100242.47
2024-02-02T06:49:46.241Z,100237.66
2024-02-02T06:54:38.072Z,100248.63
2024-02-02T06:59:29.902Z,100250.88
2024-02-02T07:04:22.060Z,100251.53
2024-02-02T07:09:19.931Z,100266.72
2024-02-02T07:14:33.840Z,100275.03
2024-02-02T07:19:41.515Z,100262.72
2024-02-02T07:24:33.346Z,100272.22
2024-02-02T07:29:39.775Z,100288.41
2024-02-02T07:34:44.394Z,100268.03
2024-02-02T07:39:36.496Z,100280.50
2024-02-02T07:44:28.244Z,100273.25
2024-02-02T07:49:20.502Z,100283.38
2024-02-02T07:54:12.963Z,100298.22
2024-02-02T07:59:05.046Z,100302.59
2024-02-02T08:03:56.849Z,100290.28
2024-02-02T08:08:48.571Z,100286.19
2024-02-02T08:13:40.248Z,100276.88
2024-02-02T08:18:32.191Z,100274.66
2024-02-02T08:23:26.718Z,100271.56
2024-02-02T08:28:18.568Z,100252.28
2024-02-02T08:33:10.359Z,100257.31
2024-02-02T08:38:04.858Z,100247.31
2024-02-02T08:42:56.501Z,100254.22
2024-02-02T08:47:48.611Z,100274.59
2024-02-02T08:52:44.221Z,100276.56
2024-02-02T08:58:03.915Z,100267.03
2024-02-02T09:03:25.257Z,100258.22
2024-02-02T09:08:16.927Z,100238.72
2024-02-02T09:13:20.151Z,100239.16
2024-02-02T09:18:23.321Z,100250.84
2024-02-02T09:23:14.944Z,100242.53
2024-02-02T09:28:30.850Z,100236.94
2024-02-02T09:33:46.154Z,100229.91
2024-02-02T09:38:38.418Z,100231.19
2024-02-02T09:43:54.346Z,100224.31
2024-02-02T09:49:04.360Z,100230.22
2024-02-02T09:54:26.920Z,100228.41
2024-02-02T09:59:33.763Z,100229.75
2024-02-02T10:04:46.765Z,100224.75
2024-02-02T10:09:57.656Z,100229.47
2024-02-02T10:14:58.440Z,100234.53
2024-02-02T10:20:10.359Z,100236.16
2024-02-02T10:25:04.578Z,100234.22
2024-02-02T10:30:08.226Z,100233.91
2024-02-02T10:35:21.570Z,100233.94
2024-02-02T10:40:32.018Z,100231.75
2024-02-02T10:45:36.190Z,100231.97
2024-02-02T10:50:55.859Z,100232.94
2024-02-02T10:55:56.611Z,100248.88
2024-02-02T11:01:04.421Z,100243.34
2024-02-02T11:06:08.569Z,100226.50
2024-02-02T11:11:09.031Z,100257.50
2024-02-02T11:16:24.461Z,100229.34
2024-02-02T11:21:26.344Z,100240.38
2024-02-02T11:26:36.334Z,100247.97
2024-02-02T11:31:35.603Z,100266.00
2024-02-02T11:36:39.320Z,100276.63
2024-02-02T11:41:34.469Z,100289.97
2024-02-02T11:46:33.167Z,100275.28
2024-02-02T11:51:25.604Z,100275.41
2024-02-02T11:56:25.554Z,100252.66
2024-02-02T12:01:29.938Z,100239.47
2024-02-02T12:06:22.855Z,100240.31
2024-02-02T12:11:18.999Z,100244.81
2024-02-02T12:16:16.120Z,100230.47
2024-02-02T12:21:13.894Z,100193.09
2024-02-02T12:26:08.182Z,100199.72
2024-02-02T12:30:59.880Z,100180.41
2024-02-02T12:35:53.304Z,100184.41
2024-02-02T12:40:45.147Z,100177.31
2024-02-02T12:45:39.106Z,100174.84
2024-02-02T12:50:30.812Z,100192.75
2024-02-02T12:55:22.595Z,100198.25
2024-02-02T13:00:17.572Z,100198.31
2024-02-02T13:05:13.090Z,100201.91
2024-02-02T13:10:06.932Z,100199.44
2024-02-02T13:15:09.482Z,100175.00
2024-02-02T13:20:10.148Z,100199.97
2024-02-02T13:25:03.419Z,100206.47
2024-02-02T13:29:57.966Z,100213.16
2024-02-02T13:34:50.241Z,100196.19
2024-02-02T13:39:42.139Z,100199.75
2024-02-02T13:44:35.319Z,100199.56
2024-02-02T13:49:34.440Z,100185.16
2024-02-02T13:54:26.375Z,100189.44
2024-02-02T13:59:19.352Z,100176.53
2024-02-02T14:04:12.882Z,100187.88
2024-02-02T14:09:06.223Z,100198.09
2024-02-02T14:14:02.688Z,100190.78
2024-02-02T14:19:02.311Z,100202.50
2024-02-02T14:23:54.206Z,100192.06
2024-02-02T14:28:45.904Z,100193.34
2024-02-02T14:33:38.187Z,100191.06
2024-02-02T14:38:29.999Z,100182.91
2024-02-02T14:43:22.498Z,100180.81
2024-02-02T14:48:14.583Z,100175.38
2024-02-02T14:53:06.450Z,100186.88
2024-02-02T14:57:59.310Z,100187.09
2024-02-02T15:02:51.127Z,100178.56
2024-02-02T15:07:43.454Z,100183.34
2024-02-02T15:12:35.154Z,100186.47
2024-02-02T15:17:27.372Z,100190.03
2024-02-02T15:22:19.196Z,100198.38
2024-02-02T15:27:11.165Z,100188.75
2024-02-02T15:32:02.944Z,100176.38
2024-02-02T15:36:55.224Z,100176.19
2024-02-02T15:41:46.895Z,100174.94
2024-02-02T15:46:39.059Z,100174.94
2024-02-02T15:51:31.987Z,100171.38
2024-02-02T15:56:26.516Z,100173.88
2024-02-02T16:01:18.371Z,100173.25
2024-02-02T16:06:11.161Z,100174.09
2024-02-02T16:11:03.017Z,100167.41
2024-02-02T16:15:55.097Z,100157.41
2024-02-02T16:20:46.684Z,100148.22
2024-02-02T16:25:38.477Z,100156.56
2024-02-02T16:30:30.146Z,100156.59
2024-02-02T16:35:23.066Z,100167.06
2024-02-02T16:40:14.834Z,100181.28
2024-02-02T16:45:07.864Z,100170.03
2024-02-02T16:49:59.600Z,100170.47
2024-02-02T16:54:51.345Z,100179.25
2024-02-02T16:59:43.926Z,100185.50
2024-02-02T17:04:35.820Z,100182.56
2024-02-02T17:09:27.806Z,100182.38
2024-02-02T17:14:19.591Z,100169.22
2024-02-02T17:19:11.516Z,100163.38
2024-02-02T17:24:03.307Z,100195.53
2024-02-02T17:29:00.251Z,100193.00
2024-02-02T17:33:55.827Z,100204.66
2024-02-02T17:38:47.600Z,100202.97
2024-02-02T17:43:40.446Z,100194.03
2024-02-02T17:48:33.403Z,100183.38
2024-02-02T17:53:25.452Z,100174.16
2024-02-02T17:58:17.208Z,100169.53
2024-02-02T18:03:10.192Z,100169.94
2024-02-02T18:08:02.066Z,100159.28
2024-02-02T18:12:53.730Z,100156.13
2024-02-02T18:17:45.808Z,100148.22
2024-02-02T18:22:37.559Z,100135.06
2024-02-02T18:27:29.315Z,100130.50
2024-02-02T18:32:21.444Z,100136.75
2024-02-02T18:37:14.693Z,100135.47
2024-02-02T18:42:08.404Z,100124.84
2024-02-02T18:47:00.248Z,100132.75
2024-02-02T18:51:52.126Z,100141.09
2024-02-02T18:56:43.987Z,100146.72
2024-02-02T19:01:36.094Z,100143.81
2024-02-02T19:06:28.150Z,100151.94
2024-02-02T19:11:20.701Z,100156.53
2024-02-02T19:16:22.327Z,100163.19
2024-02-02T19:21:24.725Z,100144.63
2024-02-02T19:26:17.022Z,100144.41
2024-02-02T19:31:08.927Z,100128.16
2024-02-02T19:36:00.528Z,100135.25
2024-02-02T19:40:52.206Z,100124.41
2024-02-02T19:45:44.861Z,100156.94
2024-02-02T19:50:36.591Z,100156.31
2024-02-02T19:55:29.777Z,100147.53
2024-02-02T20:00:23.322Z,100160.88
2024-02-02T20:05:15.644Z,100162.38
2024-02-02T20:10:09.689Z,100169.88
2024-02-02T20:15:01.438Z,100164.47
2024-02-02T20:19:53.369Z,100157.00
2024-02-02T20:24:45.175Z,100169.06
2024-02-02T20:29:39.202Z,100168.25
2024-02-02T20:34:32.970Z,100182.47
2024-02-02T20:39:24.945Z,100186.41
2024-02-02T20:44:16.789Z,100202.53
2024-02-02T20:49:08.522Z,100190.81
2024-02-02T20:54:00.311Z,100197.47
2024-02-02T20:58:52.066Z,100197.88
2024-02-02T21:03:43.883Z,100192.88
2024-02-02T21:08:35.635Z,100204.97
2024-02-02T21:13:27.298Z,100209.34
2024-02-02T21:18:19.229Z,100188.25
2024-02-02T21:23:11.705Z,100182.84
2024-02-02T21:28:04.000Z,100177.81
2024-02-02T21:32:55.662Z,100179.50
2024-02-02T21:37:47.381Z,100192.44
2024-02-02T21:42:39.333Z,100193.25
2024-02-02T21:47:31.062Z,100180.31
2024-02-02T21:52:22.757Z,100174.91
2024-02-02T21:57:14.649Z,100185.75
2024-02-02T22:02:07.038Z,100168.66
2024-02-02T22:06:59.051Z,100163.84
2024-02-02T22:11:50.719Z,100160.69
2024-02-02T22:16:42.567Z,100155.72
2024-02-02T22:21:36.131Z,100143.81
2024-02-02T22:26:28.328Z,100149.88
2024-02-02T22:31:23.665Z,100153.81
2024-02-02T22:36:25.626Z,100167.78
2024-02-02T22:41:32.339Z,100158.22
2024-02-02T22:46:26.044Z,100155.91
2024-02-02T22:51:17.768Z,100143.59
2024-02-02T22:56:09.801Z,100140.28
2024-02-02T23:01:01.684Z,100138.59
2024-02-02T23:05:54.979Z,100141.31
2024-02-02T23:10:47.322Z,100144.41
2024-02-02T23:15:39.094Z,100127.75
2024-02-02T23:20:30.801Z,100145.88
2024-02-02T23:25:22.449Z,100136.91
2024-02-02T23:30:14.344Z,100142.13
2024-02-02T23:35:06.376Z,100136.06
2024-02-02T23:39:58.165Z,100138.16
2024-02-02T23:44:52.056Z,100131.06
2024-02-02T23:49:43.789Z,100132.75
2024-02-02T23:54:35.712Z,100126.91
2024-02-02T23:59:27.891Z,100129.84
